Terminal Aerodrome Forecast
Issued by NWS

Home | Current Version | Previous Version | Text Only | Print | Product List | Glossary On
Versions: 1 2 3 4 5 6 7 8 9 10 11 12 13 14 15
000
FTUS41 KBTV 202338
TAFMPV
TAF
KMPV 202338Z 2100/2124 VRB04KT P6SM VCSH SCT020 OVC040
      TEMPO 2100/2104 5SM -SN BKN020
     FM210400 17005KT P6SM OVC030
     FM211000 17005KT P6SM SCT030
     FM211500 19008G18KT P6SM SCT200=

USA.gov is the U.S. government's official web portal to all federal, state and local government web resources and services.